createdAt,value
2022-10-17T00:01:24.487Z,62.76
2022-10-17T00:04:26.844Z,62.76
2022-10-17T00:07:30.820Z,63.25
2022-10-17T00:10:33.421Z,63.31
2022-10-17T00:13:36.226Z,63.19
2022-10-17T00:16:38.558Z,63.56
2022-10-17T00:19:40.975Z,63.70
2022-10-17T00:22:43.321Z,63.61
2022-10-17T00:25:45.708Z,63.86
2022-10-17T00:28:49.430Z,64.01
2022-10-17T00:31:56.073Z,64.55
2022-10-17T00:34:58.790Z,63.69
2022-10-17T00:38:01.059Z,63.78
2022-10-17T00:41:04.168Z,63.87
2022-10-17T00:44:27.791Z,64.33
2022-10-17T00:47:31.699Z,64.25
2022-10-17T00:50:34.925Z,64.20
2022-10-17T00:53:39.437Z,64.01
2022-10-17T00:56:41.970Z,64.07
2022-10-17T00:59:47.749Z,64.58
2022-10-17T01:02:50.210Z,63.99
2022-10-17T01:05:52.745Z,64.40
2022-10-17T01:08:55.330Z,64.02
2022-10-17T01:12:16.517Z,64.04
2022-10-17T01:15:37.486Z,64.07
2022-10-17T01:18:46.269Z,64.47
2022-10-17T01:22:14.413Z,64.43
2022-10-17T01:25:36.294Z,64.77
2022-10-17T01:29:26.310Z,64.10
2022-10-17T01:32:37.362Z,64.08
2022-10-17T01:35:45.905Z,64.00
2022-10-17T01:38:53.901Z,63.97
2022-10-17T01:42:04.940Z,64.11
2022-10-17T01:45:12.800Z,63.73
2022-10-17T01:48:18.755Z,64.12
2022-10-17T01:51:26.976Z,64.23
2022-10-17T01:54:55.837Z,63.47
2022-10-17T01:58:05.721Z,63.52
2022-10-17T02:01:09.349Z,63.16
2022-10-17T02:04:14.039Z,63.16
2022-10-17T02:07:18.612Z,63.40
2022-10-17T02:10:39.788Z,63.39
2022-10-17T02:14:32.959Z,63.16
2022-10-17T02:17:49.278Z,63.13
2022-10-17T02:21:11.702Z,62.72
2022-10-17T02:24:57.887Z,62.54
2022-10-17T02:28:06.401Z,62.82
2022-10-17T02:31:26.397Z,63.01
2022-10-17T02:34:33.828Z,62.98
2022-10-17T02:37:36.706Z,63.00
2022-10-17T02:40:40.993Z,63.19
2022-10-17T02:43:45.595Z,62.88
2022-10-17T02:46:53.276Z,62.93
2022-10-17T02:49:58.580Z,63.28
2022-10-17T02:53:09.577Z,62.74
2022-10-17T02:56:18.100Z,63.53
2022-10-17T02:59:22.270Z,63.56
2022-10-17T03:02:24.868Z,63.40
2022-10-17T03:05:29.141Z,63.43
2022-10-17T03:08:31.514Z,63.61
2022-10-17T03:11:35.656Z,63.42
2022-10-17T03:14:37.987Z,63.33
2022-10-17T03:17:40.381Z,63.55
2022-10-17T03:20:43.966Z,63.09
2022-10-17T03:23:46.448Z,63.61
2022-10-17T03:26:50.165Z,63.35
2022-10-17T03:29:52.478Z,63.77
2022-10-17T03:32:57.955Z,64.05
2022-10-17T03:36:00.296Z,63.71
2022-10-17T03:39:02.728Z,63.05
2022-10-17T03:42:05.033Z,62.53
2022-10-17T03:45:07.913Z,61.61
2022-10-17T03:48:11.115Z,61.80
2022-10-17T03:51:13.735Z,61.36
2022-10-17T03:54:21.040Z,61.59
2022-10-17T03:57:23.549Z,61.36
2022-10-17T04:00:25.992Z,60.48
2022-10-17T04:03:32.441Z,60.91
2022-10-17T04:06:35.493Z,60.56
2022-10-17T04:09:37.806Z,59.98
2022-10-17T04:12:49.308Z,60.52
2022-10-17T04:15:59.730Z,61.02
2022-10-17T04:19:02.325Z,61.84
2022-10-17T04:22:09.934Z,62.65
2022-10-17T04:25:14.694Z,62.85
2022-10-17T04:28:20.493Z,63.89
2022-10-17T04:31:22.914Z,63.61
2022-10-17T04:34:42.857Z,63.72
2022-10-17T04:37:45.127Z,64.18
2022-10-17T04:40:52.953Z,64.48
2022-10-17T04:43:55.430Z,63.95
2022-10-17T04:46:58.426Z,64.43
2022-10-17T04:50:01.438Z,64.21
2022-10-17T04:53:05.464Z,64.58
2022-10-17T04:56:19.553Z,64.74
2022-10-17T04:59:21.909Z,64.80
2022-10-17T05:02:30.962Z,65.11
2022-10-17T05:05:34.546Z,65.22
2022-10-17T05:08:38.692Z,65.24
2022-10-17T05:11:42.544Z,64.93
2022-10-17T05:14:45.677Z,65.03
2022-10-17T05:17:48.901Z,65.00
2022-10-17T05:20:52.234Z,64.93
2022-10-17T05:23:55.482Z,64.94
2022-10-17T05:26:58.201Z,65.12
2022-10-17T05:30:00.557Z,65.10
2022-10-17T05:33:05.873Z,65.20
2022-10-17T05:36:08.438Z,65.77
2022-10-17T05:39:14.111Z,65.23
2022-10-17T05:42:17.454Z,65.25
2022-10-17T05:45:21.154Z,65.00
2022-10-17T05:48:24.173Z,65.43
2022-10-17T05:51:26.764Z,64.94
2022-10-17T05:54:31.643Z,64.98
2022-10-17T05:57:34.021Z,64.88
2022-10-17T06:00:37.491Z,62.89
2022-10-17T06:03:40.604Z,63.27
2022-10-17T06:06:42.934Z,64.33
2022-10-17T06:12:52.766Z,64.16
2022-10-17T06:15:56.375Z,61.64
2022-10-17T06:18:59.234Z,61.18
2022-10-17T06:22:02.633Z,62.18
2022-10-17T06:25:05.839Z,60.81
2022-10-17T06:28:08.248Z,59.89
2022-10-17T06:31:13.485Z,59.60
2022-10-17T06:34:16.711Z,58.94
2022-10-17T06:37:19.650Z,59.51
2022-10-17T06:40:22.874Z,59.25
2022-10-17T06:43:28.003Z,58.97
2022-10-17T06:46:48.876Z,58.25
2022-10-17T06:49:52.921Z,58.01
2022-10-17T06:53:07.197Z,56.42
2022-10-17T06:56:29.812Z,55.74
2022-10-17T06:59:43.938Z,54.19
2022-10-17T07:02:51.895Z,51.78
2022-10-17T07:05:55.495Z,51.57
2022-10-17T07:08:58.961Z,49.77
2022-10-17T07:12:12.919Z,48.63
2022-10-17T07:15:19.458Z,47.67
2022-10-17T07:18:27.022Z,47.29
2022-10-17T07:21:38.986Z,45.51
2022-10-17T07:25:15.237Z,44.47
2022-10-17T07:28:23.507Z,44.82
2022-10-17T07:31:27.129Z,44.12
2022-10-17T07:34:31.392Z,43.79
2022-10-17T07:37:34.482Z,44.11
2022-10-17T07:40:37.567Z,43.09
2022-10-17T07:43:41.824Z,42.35
2022-10-17T07:46:45.465Z,43.09
2022-10-17T07:49:47.920Z,42.02
2022-10-17T07:52:50.662Z,42.51
2022-10-17T07:55:53.064Z,42.24
2022-10-17T08:01:58.044Z,41.41
2022-10-17T08:05:00.359Z,41.81
2022-10-17T08:08:02.684Z,40.82
2022-10-17T08:11:07.913Z,40.75
2022-10-17T08:14:14.041Z,41.49
2022-10-17T08:17:16.289Z,40.57
2022-10-17T08:20:18.697Z,41.04
2022-10-17T08:23:21.078Z,40.35
2022-10-17T08:26:23.381Z,41.13
2022-10-17T08:29:25.689Z,40.09
2022-10-17T08:32:29.790Z,40.05
2022-10-17T08:35:32.183Z,39.92
2022-10-17T08:38:36.390Z,39.99
2022-10-17T08:42:07.195Z,39.38
2022-10-17T08:45:32.730Z,39.65
2022-10-17T08:48:42.747Z,38.21
2022-10-17T08:51:56.429Z,38.50
2022-10-17T08:54:59.694Z,38.36
2022-10-17T08:58:02.007Z,39.06
2022-10-17T09:01:06.900Z,38.21
2022-10-17T09:04:14.508Z,37.01
2022-10-17T09:07:27.964Z,36.82
2022-10-17T09:11:01.861Z,37.50
2022-10-17T09:14:32.107Z,36.54
2022-10-17T09:17:53.644Z,36.96
2022-10-17T09:21:11.250Z,36.51
2022-10-17T09:24:27.041Z,34.95
2022-10-17T09:28:06.813Z,35.49
2022-10-17T09:31:35.713Z,35.71
2022-10-17T09:34:38.055Z,35.66
2022-10-17T09:37:41.127Z,34.71
2022-10-17T09:40:44.682Z,33.40
2022-10-17T09:43:47.968Z,34.66
2022-10-17T09:47:11.775Z,33.92
2022-10-17T09:50:28.368Z,34.57
2022-10-17T09:53:35.034Z,34.13
2022-10-17T09:57:06.555Z,34.26
2022-10-17T10:00:21.642Z,32.91
2022-10-17T10:03:26.246Z,33.58
2022-10-17T10:06:28.573Z,32.38
2022-10-17T10:09:34.799Z,32.25
2022-10-17T10:12:39.640Z,32.52
2022-10-17T10:15:47.260Z,33.12
2022-10-17T10:18:51.045Z,33.38
2022-10-17T10:21:59.096Z,34.57
2022-10-17T10:25:08.669Z,34.19
2022-10-17T10:28:17.722Z,33.42
2022-10-17T10:31:36.078Z,33.48
2022-10-17T10:34:49.589Z,33.99
2022-10-17T10:37:56.989Z,32.15
2022-10-17T10:41:05.437Z,32.04
2022-10-17T10:44:14.716Z,32.62
2022-10-17T10:47:26.925Z,32.58
2022-10-17T10:50:30.485Z,32.52
2022-10-17T10:53:53.550Z,32.70
2022-10-17T10:57:00.948Z,33.31
2022-10-17T11:00:15.579Z,33.43
2022-10-17T11:03:24.011Z,32.85
2022-10-17T11:06:28.862Z,33.17
2022-10-17T11:09:41.435Z,32.07
2022-10-17T11:12:46.206Z,32.51
2022-10-17T11:16:00.657Z,31.80
2022-10-17T11:19:25.965Z,32.24
2022-10-17T11:22:32.529Z,32.93
2022-10-17T11:25:39.088Z,33.08
2022-10-17T11:28:41.441Z,33.18
2022-10-17T11:31:48.615Z,33.42
2022-10-17T11:35:01.132Z,33.73
2022-10-17T11:38:43.058Z,33.16
2022-10-17T11:41:48.048Z,32.86
2022-10-17T11:44:55.501Z,32.94
2022-10-17T11:48:05.197Z,31.79
2022-10-17T11:54:39.287Z,31.22
2022-10-17T11:57:46.694Z,31.99
2022-10-17T12:01:12.544Z,31.84
2022-10-17T12:04:56.350Z,31.66
2022-10-17T12:08:09.258Z,31.49
2022-10-17T12:11:17.796Z,31.35
2022-10-17T12:14:42.810Z,31.35
2022-10-17T12:17:46.676Z,31.78
2022-10-17T12:20:59.795Z,31.13
2022-10-17T12:24:02.095Z,31.34
2022-10-17T12:27:33.770Z,30.80
2022-10-17T12:30:36.738Z,31.28
2022-10-17T12:33:48.872Z,31.09
2022-10-17T12:36:51.248Z,31.25
2022-10-17T12:40:00.147Z,31.96
2022-10-17T12:43:15.070Z,31.35
2022-10-17T12:46:44.853Z,31.03
2022-10-17T12:49:54.413Z,31.27
2022-10-17T12:53:04.948Z,31.41
2022-10-17T12:56:07.575Z,31.51
2022-10-17T12:59:27.547Z,31.03
2022-10-17T13:02:30.985Z,32.30
2022-10-17T13:05:36.706Z,31.98
2022-10-17T13:08:44.853Z,32.94
2022-10-17T13:11:49.636Z,32.67
2022-10-17T13:14:53.205Z,32.67
2022-10-17T13:17:57.754Z,31.88
2022-10-17T13:21:01.919Z,32.51
2022-10-17T13:24:44.191Z,31.24
2022-10-17T13:27:47.082Z,33.12
2022-10-17T13:30:49.877Z,31.87
2022-10-17T13:33:56.687Z,32.24
2022-10-17T13:37:02.558Z,32.16
2022-10-17T13:40:17.580Z,32.47
2022-10-17T13:43:27.477Z,31.39
2022-10-17T13:46:38.080Z,32.53
2022-10-17T13:49:42.547Z,32.56
2022-10-17T13:52:44.858Z,32.10
2022-10-17T13:56:09.477Z,31.37
2022-10-17T13:59:26.168Z,31.48
2022-10-17T14:02:35.410Z,31.95
2022-10-17T14:06:09.890Z,33.54
2022-10-17T14:09:22.690Z,32.73
2022-10-17T14:12:25.928Z,32.66
2022-10-17T14:15:30.550Z,32.58
2022-10-17T14:18:36.664Z,32.96
2022-10-17T14:21:44.435Z,33.10
2022-10-17T14:24:47.477Z,33.90
2022-10-17T14:28:04.157Z,33.59
2022-10-17T14:31:15.554Z,33.93
2022-10-17T14:34:24.468Z,33.21
2022-10-17T14:37:47.789Z,34.72
2022-10-17T14:41:15.298Z,34.83
2022-10-17T14:44:30.179Z,34.09
2022-10-17T14:47:43.662Z,34.32
2022-10-17T14:51:15.525Z,34.87
2022-10-17T14:54:22.733Z,34.42
2022-10-17T14:57:34.504Z,35.18
2022-10-17T15:00:36.770Z,35.25
2022-10-17T15:03:39.090Z,34.98
2022-10-17T15:06:41.816Z,34.95
2022-10-17T15:09:45.142Z,35.41
2022-10-17T15:12:56.202Z,35.24
2022-10-17T15:16:01.303Z,36.50
2022-10-17T15:19:03.530Z,36.08
2022-10-17T15:22:05.796Z,36.82
2022-10-17T15:25:08.553Z,36.40
2022-10-17T15:28:13.236Z,36.60
2022-10-17T15:31:18.709Z,37.53
2022-10-17T15:34:20.961Z,37.47
2022-10-17T15:37:25.070Z,37.45
2022-10-17T15:40:29.818Z,38.28
2022-10-17T15:43:32.030Z,38.24
2022-10-17T15:46:35.351Z,39.10
2022-10-17T15:49:37.659Z,39.01
2022-10-17T15:52:41.334Z,40.69
2022-10-17T15:55:43.622Z,41.22
2022-10-17T15:58:45.909Z,39.15
2022-10-17T16:01:50.829Z,40.45
2022-10-17T16:04:53.572Z,41.40
2022-10-17T16:07:57.564Z,42.72
2022-10-17T16:10:59.853Z,43.78
2022-10-17T16:14:05.590Z,44.43
2022-10-17T16:17:12.763Z,45.83
2022-10-17T16:20:15.490Z,45.60
2022-10-17T16:23:17.910Z,46.45
2022-10-17T16:26:20.466Z,46.61
2022-10-17T16:29:22.759Z,47.20
2022-10-17T16:32:25.107Z,47.52
2022-10-17T16:35:33.134Z,47.50
2022-10-17T16:38:38.954Z,48.57
2022-10-17T16:41:41.274Z,48.58
2022-10-17T16:44:43.588Z,49.34
2022-10-17T16:47:46.401Z,48.98
2022-10-17T16:50:48.675Z,49.65
2022-10-17T16:53:52.897Z,49.36
2022-10-17T16:56:57.718Z,49.50
2022-10-17T17:00:00.092Z,49.16
2022-10-17T17:03:02.365Z,49.44
2022-10-17T17:06:06.644Z,49.39
2022-10-17T17:09:09.465Z,49.24
2022-10-17T17:12:11.796Z,49.20
2022-10-17T17:15:14.224Z,49.04
2022-10-17T17:18:16.511Z,49.58
2022-10-17T17:21:18.778Z,50.40
2022-10-17T17:24:21.663Z,50.91
2022-10-17T17:27:25.194Z,51.75
2022-10-17T17:30:27.578Z,50.76
2022-10-17T17:33:30.301Z,50.78
2022-10-17T17:36:35.073Z,50.61
2022-10-17T17:39:37.488Z,51.15
2022-10-17T17:42:39.775Z,52.21
2022-10-17T17:45:42.105Z,51.98
2022-10-17T17:48:45.712Z,52.00
2022-10-17T17:51:48.051Z,52.86
2022-10-17T17:54:50.342Z,51.34
2022-10-17T17:57:52.546Z,52.23
2022-10-17T18:00:54.963Z,51.82
2022-10-17T18:04:01.567Z,52.12
2022-10-17T18:07:03.808Z,51.87
2022-10-17T18:10:06.919Z,52.03
2022-10-17T18:13:09.235Z,51.45
2022-10-17T18:16:13.416Z,51.40
2022-10-17T18:19:15.717Z,51.15
2022-10-17T18:22:18.035Z,51.90
2022-10-17T18:25:20.311Z,50.86
2022-10-17T18:28:23.198Z,51.57
2022-10-17T18:31:28.941Z,52.33
2022-10-17T18:34:31.216Z,52.00
2022-10-17T18:37:33.556Z,52.45
2022-10-17T18:40:36.034Z,52.34
2022-10-17T18:43:40.026Z,52.03
2022-10-17T18:46:42.847Z,52.65
2022-10-17T18:49:45.252Z,52.35
2022-10-17T18:52:48.474Z,52.27
2022-10-17T18:55:51.326Z,53.06
2022-10-17T18:58:54.043Z,52.72
2022-10-17T19:01:56.343Z,52.84
2022-10-17T19:04:58.772Z,52.42
2022-10-17T19:08:01.029Z,52.97
2022-10-17T19:11:18.062Z,53.54
2022-10-17T19:14:20.382Z,53.89
2022-10-17T19:17:22.617Z,53.77
2022-10-17T19:20:24.902Z,53.30
2022-10-17T19:23:27.209Z,53.95
2022-10-17T19:26:32.348Z,53.77
2022-10-17T19:29:34.586Z,53.67
2022-10-17T19:32:37.681Z,54.03
2022-10-17T19:35:41.379Z,54.05
2022-10-17T19:38:43.650Z,54.33
2022-10-17T19:41:47.477Z,54.08
2022-10-17T19:44:49.757Z,54.17
2022-10-17T19:47:52.024Z,54.83
2022-10-17T19:50:54.387Z,54.91
2022-10-17T19:54:00.372Z,55.02
2022-10-17T19:57:06.774Z,54.45
2022-10-17T20:00:12.633Z,54.34
2022-10-17T20:03:14.891Z,54.27
2022-10-17T20:06:19.111Z,53.73
2022-10-17T20:09:21.990Z,54.60
2022-10-17T20:12:24.321Z,53.68
2022-10-17T20:15:26.603Z,53.58
2022-10-17T20:18:29.144Z,53.10
2022-10-17T20:21:39.510Z,53.33
2022-10-17T20:24:41.820Z,52.06
2022-10-17T20:27:44.077Z,52.87
2022-10-17T20:30:46.542Z,52.63
2022-10-17T20:33:48.936Z,52.67
2022-10-17T20:36:51.433Z,52.74
2022-10-17T20:40:16.604Z,52.94
2022-10-17T20:43:16.027Z,52.56
2022-10-17T20:46:34.948Z,53.30
2022-10-17T20:49:38.464Z,52.42
2022-10-17T20:52:40.746Z,53.30
2022-10-17T20:55:43.039Z,53.67
2022-10-17T20:58:45.315Z,53.21
2022-10-17T21:01:47.991Z,53.27
2022-10-17T21:04:50.271Z,53.40
2022-10-17T21:07:52.561Z,54.49
2022-10-17T21:10:54.837Z,54.55
2022-10-17T21:13:59.582Z,55.16
2022-10-17T21:17:05.067Z,54.96
2022-10-17T21:20:08.241Z,55.24
2022-10-17T21:23:10.503Z,55.63
2022-10-17T21:26:13.043Z,55.50
2022-10-17T21:29:15.427Z,56.57
2022-10-17T21:32:31.908Z,56.55
2022-10-17T21:35:40.502Z,56.17
2022-10-17T21:38:44.252Z,56.48
2022-10-17T21:41:46.557Z,57.13
2022-10-17T21:44:49.560Z,57.20
2022-10-17T21:48:11.733Z,57.24
2022-10-17T21:51:16.134Z,58.30
2022-10-17T21:54:19.768Z,58.27
2022-10-17T21:57:22.048Z,58.12
2022-10-17T22:00:24.333Z,58.58
2022-10-17T22:03:26.615Z,58.44
2022-10-17T22:06:39.781Z,58.21
2022-10-17T22:09:43.003Z,58.36
2022-10-17T22:12:45.248Z,58.69
2022-10-17T22:15:47.478Z,59.20
2022-10-17T22:18:50.146Z,59.54
2022-10-17T22:21:53.219Z,59.69
2022-10-17T22:24:55.626Z,59.74
2022-10-17T22:27:57.903Z,60.13
2022-10-17T22:31:00.502Z,59.33
2022-10-17T22:34:05.119Z,59.51
2022-10-17T22:37:07.943Z,60.00
2022-10-17T22:40:10.797Z,60.02
2022-10-17T22:43:13.607Z,60.11
2022-10-17T22:46:17.027Z,60.03
2022-10-17T22:49:19.263Z,60.12
2022-10-17T22:52:21.560Z,60.31
2022-10-17T22:55:23.836Z,60.21
2022-10-17T22:58:26.998Z,60.18
2022-10-17T23:01:29.302Z,60.21
2022-10-17T23:04:31.705Z,60.46
2022-10-17T23:07:34.281Z,60.78
2022-10-17T23:10:36.599Z,60.98
2022-10-17T23:13:40.845Z,60.88
2022-10-17T23:16:43.167Z,60.93
2022-10-17T23:19:45.533Z,61.30
2022-10-17T23:22:47.925Z,61.16
2022-10-17T23:25:50.607Z,61.46
2022-10-17T23:28:54.588Z,61.70
2022-10-17T23:31:56.950Z,61.71
2022-10-17T23:34:59.262Z,61.86
2022-10-17T23:38:01.580Z,62.04
2022-10-17T23:41:04.020Z,62.03
2022-10-17T23:44:06.806Z,61.97
2022-10-17T23:47:09.073Z,61.89
2022-10-17T23:50:11.447Z,61.97
2022-10-17T23:53:13.780Z,62.16
2022-10-17T23:56:16.176Z,62.44
2022-10-17T23:59:18.380Z,62.45
